sensor_id;sensor_type;location;lat;lon;timestamp;P1;durP1;ratioP1;P2;durP2;ratioP2
7829;SDS011;3960;51.86894000;5.39848000;2022-10-31T00:01:13;15.85;;;8.15;;
7829;SDS011;3960;51.86894000;5.39848000;2022-10-31T00:03:39;15.20;;;9.10;;
7829;SDS011;3960;51.86894000;5.39848000;2022-10-31T00:06:04;19.00;;;9.30;;
7829;SDS011;3960;51.86894000;5.39848000;2022-10-31T00:08:29;15.18;;;8.95;;
7829;SDS011;3960;51.86894000;5.39848000;2022-10-31T00:10:54;15.30;;;10.20;;
7829;SDS011;3960;51.86894000;5.39848000;2022-10-31T00:13:19;16.27;;;9.23;;
7829;SDS011;3960;51.86894000;5.39848000;2022-10-31T00:15:44;14.43;;;9.00;;
7829;SDS011;3960;51.86894000;5.39848000;2022-10-31T00:18:10;13.53;;;8.53;;
7829;SDS011;3960;51.86894000;5.39848000;2022-10-31T00:20:35;13.82;;;9.63;;
7829;SDS011;3960;51.86894000;5.39848000;2022-10-31T00:23:01;18.73;;;9.05;;
7829;SDS011;3960;51.86894000;5.39848000;2022-10-31T00:25:27;18.63;;;8.98;;
7829;SDS011;3960;51.86894000;5.39848000;2022-10-31T00:27:52;17.92;;;8.98;;
7829;SDS011;3960;51.86894000;5.39848000;2022-10-31T00:30:18;14.80;;;8.97;;
7829;SDS011;3960;51.86894000;5.39848000;2022-10-31T00:32:43;23.10;;;9.60;;
7829;SDS011;3960;51.86894000;5.39848000;2022-10-31T00:35:08;16.67;;;8.70;;
7829;SDS011;3960;51.86894000;5.39848000;2022-10-31T00:37:33;16.80;;;8.97;;
7829;SDS011;3960;51.86894000;5.39848000;2022-10-31T00:39:58;15.68;;;8.88;;
7829;SDS011;3960;51.86894000;5.39848000;2022-10-31T00:42:24;16.80;;;8.60;;
7829;SDS011;3960;51.86894000;5.39848000;2022-10-31T00:44:49;19.85;;;8.20;;
7829;SDS011;3960;51.86894000;5.39848000;2022-10-31T00:47:14;15.77;;;8.37;;
7829;SDS011;3960;51.86894000;5.39848000;2022-10-31T00:49:39;20.70;;;8.77;;
7829;SDS011;3960;51.86894000;5.39848000;2022-10-31T00:52:05;16.93;;;9.07;;
7829;SDS011;3960;51.86894000;5.39848000;2022-10-31T00:54:30;14.27;;;9.18;;
7829;SDS011;3960;51.86894000;5.39848000;2022-10-31T00:56:55;24.83;;;9.02;;
7829;SDS011;3960;51.86894000;5.39848000;2022-10-31T00:59:21;22.83;;;9.50;;
7829;SDS011;3960;51.86894000;5.39848000;2022-10-31T01:01:46;20.87;;;9.07;;
7829;SDS011;3960;51.86894000;5.39848000;2022-10-31T01:04:11;17.63;;;8.93;;
7829;SDS011;3960;51.86894000;5.39848000;2022-10-31T01:06:36;16.50;;;8.55;;
7829;SDS011;3960;51.86894000;5.39848000;2022-10-31T01:09:01;20.13;;;8.93;;
7829;SDS011;3960;51.86894000;5.39848000;2022-10-31T01:11:26;16.50;;;8.27;;
7829;SDS011;3960;51.86894000;5.39848000;2022-10-31T01:13:52;14.20;;;8.60;;
7829;SDS011;3960;51.86894000;5.39848000;2022-10-31T01:16:19;13.65;;;7.97;;
7829;SDS011;3960;51.86894000;5.39848000;2022-10-31T01:18:44;17.10;;;8.85;;
7829;SDS011;3960;51.86894000;5.39848000;2022-10-31T01:21:11;14.07;;;9.07;;
7829;SDS011;3960;51.86894000;5.39848000;2022-10-31T01:23:37;18.88;;;8.60;;
7829;SDS011;3960;51.86894000;5.39848000;2022-10-31T01:26:07;17.92;;;8.77;;
7829;SDS011;3960;51.86894000;5.39848000;2022-10-31T01:28:34;17.67;;;9.68;;
7829;SDS011;3960;51.86894000;5.39848000;2022-10-31T01:31:06;18.52;;;9.88;;
7829;SDS011;3960;51.86894000;5.39848000;2022-10-31T01:33:32;16.58;;;10.13;;
7829;SDS011;3960;51.86894000;5.39848000;2022-10-31T01:35:57;14.85;;;9.27;;
7829;SDS011;3960;51.86894000;5.39848000;2022-10-31T01:38:22;16.73;;;9.53;;
7829;SDS011;3960;51.86894000;5.39848000;2022-10-31T01:40:48;18.70;;;9.70;;
7829;SDS011;3960;51.86894000;5.39848000;2022-10-31T01:43:13;19.13;;;10.77;;
7829;SDS011;3960;51.86894000;5.39848000;2022-10-31T01:45:38;18.05;;;10.00;;
7829;SDS011;3960;51.86894000;5.39848000;2022-10-31T01:48:03;17.27;;;10.20;;
7829;SDS011;3960;51.86894000;5.39848000;2022-10-31T01:50:32;17.42;;;10.10;;
7829;SDS011;3960;51.86894000;5.39848000;2022-10-31T01:53:00;16.33;;;10.50;;
7829;SDS011;3960;51.86894000;5.39848000;2022-10-31T01:55:30;26.30;;;10.25;;
7829;SDS011;3960;51.86894000;5.39848000;2022-10-31T02:00:22;15.85;;;9.82;;
7829;SDS011;3960;51.86894000;5.39848000;2022-10-31T02:02:48;17.02;;;10.95;;
7829;SDS011;3960;51.86894000;5.39848000;2022-10-31T02:05:15;16.73;;;11.25;;
7829;SDS011;3960;51.86894000;5.39848000;2022-10-31T02:07:48;19.50;;;9.85;;
7829;SDS011;3960;51.86894000;5.39848000;2022-10-31T02:10:16;19.27;;;10.23;;
7829;SDS011;3960;51.86894000;5.39848000;2022-10-31T02:12:41;19.48;;;10.50;;
7829;SDS011;3960;51.86894000;5.39848000;2022-10-31T02:15:07;18.20;;;10.50;;
7829;SDS011;3960;51.86894000;5.39848000;2022-10-31T02:17:32;24.00;;;11.23;;
7829;SDS011;3960;51.86894000;5.39848000;2022-10-31T02:22:50;26.33;;;13.27;;
7829;SDS011;3960;51.86894000;5.39848000;2022-10-31T02:28:13;26.25;;;12.85;;
7829;SDS011;3960;51.86894000;5.39848000;2022-10-31T02:35:42;24.42;;;13.07;;
7829;SDS011;3960;51.86894000;5.39848000;2022-10-31T02:40:38;31.40;;;15.10;;
7829;SDS011;3960;51.86894000;5.39848000;2022-10-31T02:45:31;32.55;;;15.98;;
7829;SDS011;3960;51.86894000;5.39848000;2022-10-31T02:47:58;27.42;;;16.38;;
7829;SDS011;3960;51.86894000;5.39848000;2022-10-31T02:50:29;26.23;;;16.25;;
7829;SDS011;3960;51.86894000;5.39848000;2022-10-31T02:52:56;30.23;;;17.63;;
7829;SDS011;3960;51.86894000;5.39848000;2022-10-31T02:57:49;32.40;;;15.25;;
7829;SDS011;3960;51.86894000;5.39848000;2022-10-31T03:00:15;29.00;;;15.63;;
7829;SDS011;3960;51.86894000;5.39848000;2022-10-31T03:05:49;31.00;;;16.27;;
7829;SDS011;3960;51.86894000;5.39848000;2022-10-31T03:08:23;32.22;;;16.77;;
7829;SDS011;3960;51.86894000;5.39848000;2022-10-31T03:10:53;28.23;;;17.03;;
7829;SDS011;3960;51.86894000;5.39848000;2022-10-31T03:16:10;29.77;;;16.98;;
7829;SDS011;3960;51.86894000;5.39848000;2022-10-31T03:19:18;26.95;;;17.55;;
7829;SDS011;3960;51.86894000;5.39848000;2022-10-31T03:21:28;30.20;;;18.55;;
7829;SDS011;3960;51.86894000;5.39848000;2022-10-31T03:23:55;37.58;;;18.42;;
7829;SDS011;3960;51.86894000;5.39848000;2022-10-31T03:26:21;33.13;;;18.27;;
7829;SDS011;3960;51.86894000;5.39848000;2022-10-31T03:28:52;33.58;;;17.55;;
7829;SDS011;3960;51.86894000;5.39848000;2022-10-31T03:31:19;35.83;;;18.52;;
7829;SDS011;3960;51.86894000;5.39848000;2022-10-31T03:33:45;31.70;;;18.10;;
7829;SDS011;3960;51.86894000;5.39848000;2022-10-31T03:36:12;29.60;;;18.42;;
7829;SDS011;3960;51.86894000;5.39848000;2022-10-31T03:38:39;34.40;;;18.52;;
7829;SDS011;3960;51.86894000;5.39848000;2022-10-31T03:41:06;27.45;;;17.63;;
7829;SDS011;3960;51.86894000;5.39848000;2022-10-31T03:43:32;27.95;;;16.65;;
7829;SDS011;3960;51.86894000;5.39848000;2022-10-31T03:46:01;34.28;;;18.70;;
7829;SDS011;3960;51.86894000;5.39848000;2022-10-31T03:48:27;33.30;;;18.40;;
7829;SDS011;3960;51.86894000;5.39848000;2022-10-31T03:51:01;30.70;;;17.77;;
7829;SDS011;3960;51.86894000;5.39848000;2022-10-31T03:56:07;31.65;;;16.60;;
7829;SDS011;3960;51.86894000;5.39848000;2022-10-31T03:58:39;29.95;;;17.48;;
7829;SDS011;3960;51.86894000;5.39848000;2022-10-31T04:01:08;27.92;;;19.27;;
7829;SDS011;3960;51.86894000;5.39848000;2022-10-31T04:03:35;25.90;;;16.33;;
7829;SDS011;3960;51.86894000;5.39848000;2022-10-31T04:06:03;36.03;;;20.40;;
7829;SDS011;3960;51.86894000;5.39848000;2022-10-31T04:08:29;35.97;;;20.35;;
7829;SDS011;3960;51.86894000;5.39848000;2022-10-31T04:10:56;33.05;;;20.67;;
7829;SDS011;3960;51.86894000;5.39848000;2022-10-31T04:13:24;34.50;;;20.98;;
7829;SDS011;3960;51.86894000;5.39848000;2022-10-31T04:15:51;30.15;;;18.92;;
7829;SDS011;3960;51.86894000;5.39848000;2022-10-31T04:18:17;37.55;;;20.27;;
7829;SDS011;3960;51.86894000;5.39848000;2022-10-31T04:20:42;32.63;;;19.27;;
7829;SDS011;3960;51.86894000;5.39848000;2022-10-31T04:25:41;39.35;;;21.05;;
7829;SDS011;3960;51.86894000;5.39848000;2022-10-31T04:28:07;31.50;;;20.07;;
7829;SDS011;3960;51.86894000;5.39848000;2022-10-31T04:30:32;33.80;;;20.47;;
7829;SDS011;3960;51.86894000;5.39848000;2022-10-31T04:32:57;35.97;;;20.00;;
7829;SDS011;3960;51.86894000;5.39848000;2022-10-31T04:35:22;31.57;;;20.53;;
7829;SDS011;3960;51.86894000;5.39848000;2022-10-31T04:37:47;36.97;;;20.70;;
7829;SDS011;3960;51.86894000;5.39848000;2022-10-31T04:40:12;38.50;;;20.13;;
7829;SDS011;3960;51.86894000;5.39848000;2022-10-31T04:42:38;31.33;;;19.10;;
7829;SDS011;3960;51.86894000;5.39848000;2022-10-31T04:45:03;30.98;;;18.83;;
7829;SDS011;3960;51.86894000;5.39848000;2022-10-31T04:47:30;33.40;;;19.40;;
7829;SDS011;3960;51.86894000;5.39848000;2022-10-31T04:49:55;27.60;;;17.58;;
7829;SDS011;3960;51.86894000;5.39848000;2022-10-31T04:52:21;37.10;;;20.27;;
7829;SDS011;3960;51.86894000;5.39848000;2022-10-31T04:54:46;32.97;;;19.33;;
7829;SDS011;3960;51.86894000;5.39848000;2022-10-31T04:57:11;32.45;;;19.50;;
7829;SDS011;3960;51.86894000;5.39848000;2022-10-31T04:59:36;34.00;;;20.00;;
7829;SDS011;3960;51.86894000;5.39848000;2022-10-31T05:02:01;40.83;;;22.47;;
7829;SDS011;3960;51.86894000;5.39848000;2022-10-31T05:04:26;45.87;;;22.53;;
7829;SDS011;3960;51.86894000;5.39848000;2022-10-31T05:06:51;35.03;;;21.03;;
7829;SDS011;3960;51.86894000;5.39848000;2022-10-31T05:09:17;44.23;;;22.07;;
7829;SDS011;3960;51.86894000;5.39848000;2022-10-31T05:11:42;39.47;;;21.63;;
7829;SDS011;3960;51.86894000;5.39848000;2022-10-31T05:14:07;35.50;;;21.90;;
7829;SDS011;3960;51.86894000;5.39848000;2022-10-31T05:16:32;40.70;;;23.95;;
7829;SDS011;3960;51.86894000;5.39848000;2022-10-31T05:18:57;38.23;;;21.23;;
7829;SDS011;3960;51.86894000;5.39848000;2022-10-31T05:21:22;35.10;;;20.03;;
7829;SDS011;3960;51.86894000;5.39848000;2022-10-31T05:23:48;38.13;;;20.07;;
7829;SDS011;3960;51.86894000;5.39848000;2022-10-31T05:26:13;33.23;;;19.23;;
7829;SDS011;3960;51.86894000;5.39848000;2022-10-31T05:28:38;38.67;;;20.80;;
7829;SDS011;3960;51.86894000;5.39848000;2022-10-31T05:31:03;36.60;;;22.43;;
7829;SDS011;3960;51.86894000;5.39848000;2022-10-31T05:33:28;40.05;;;23.02;;
7829;SDS011;3960;51.86894000;5.39848000;2022-10-31T05:35:54;44.17;;;23.60;;
7829;SDS011;3960;51.86894000;5.39848000;2022-10-31T05:38:19;45.23;;;24.07;;
7829;SDS011;3960;51.86894000;5.39848000;2022-10-31T05:40:44;39.37;;;23.17;;
7829;SDS011;3960;51.86894000;5.39848000;2022-10-31T05:43:09;49.20;;;21.73;;
7829;SDS011;3960;51.86894000;5.39848000;2022-10-31T05:45:34;35.97;;;22.40;;
7829;SDS011;3960;51.86894000;5.39848000;2022-10-31T05:48:00;40.40;;;21.57;;
7829;SDS011;3960;51.86894000;5.39848000;2022-10-31T05:50:26;39.45;;;21.88;;
7829;SDS011;3960;51.86894000;5.39848000;2022-10-31T05:52:59;44.22;;;22.05;;
7829;SDS011;3960;51.86894000;5.39848000;2022-10-31T05:55:25;43.58;;;21.48;;
7829;SDS011;3960;51.86894000;5.39848000;2022-10-31T05:57:51;44.88;;;23.08;;
7829;SDS011;3960;51.86894000;5.39848000;2022-10-31T06:00:16;46.72;;;23.42;;
7829;SDS011;3960;51.86894000;5.39848000;2022-10-31T06:02:41;47.22;;;24.02;;
7829;SDS011;3960;51.86894000;5.39848000;2022-10-31T06:05:06;45.83;;;23.83;;
7829;SDS011;3960;51.86894000;5.39848000;2022-10-31T06:07:34;47.45;;;24.42;;
7829;SDS011;3960;51.86894000;5.39848000;2022-10-31T06:10:00;50.65;;;25.60;;
7829;SDS011;3960;51.86894000;5.39848000;2022-10-31T06:12:25;46.75;;;24.65;;
7829;SDS011;3960;51.86894000;5.39848000;2022-10-31T06:14:51;47.72;;;24.17;;
7829;SDS011;3960;51.86894000;5.39848000;2022-10-31T06:17:16;48.93;;;24.73;;
7829;SDS011;3960;51.86894000;5.39848000;2022-10-31T06:19:41;47.55;;;25.85;;
7829;SDS011;3960;51.86894000;5.39848000;2022-10-31T06:22:06;59.20;;;24.70;;
7829;SDS011;3960;51.86894000;5.39848000;2022-10-31T06:24:31;50.87;;;24.93;;
7829;SDS011;3960;51.86894000;5.39848000;2022-10-31T06:26:57;54.90;;;26.27;;
7829;SDS011;3960;51.86894000;5.39848000;2022-10-31T06:29:22;45.17;;;25.17;;
7829;SDS011;3960;51.86894000;5.39848000;2022-10-31T06:31:47;49.08;;;25.13;;
7829;SDS011;3960;51.86894000;5.39848000;2022-10-31T06:34:12;53.73;;;25.20;;
7829;SDS011;3960;51.86894000;5.39848000;2022-10-31T06:36:37;52.88;;;25.73;;
7829;SDS011;3960;51.86894000;5.39848000;2022-10-31T06:39:03;50.20;;;24.43;;
7829;SDS011;3960;51.86894000;5.39848000;2022-10-31T06:41:28;51.83;;;25.65;;
7829;SDS011;3960;51.86894000;5.39848000;2022-10-31T06:43:53;54.90;;;26.70;;
7829;SDS011;3960;51.86894000;5.39848000;2022-10-31T06:46:19;52.57;;;26.20;;
7829;SDS011;3960;51.86894000;5.39848000;2022-10-31T06:48:44;47.83;;;24.45;;
7829;SDS011;3960;51.86894000;5.39848000;2022-10-31T06:51:09;53.05;;;26.67;;
7829;SDS011;3960;51.86894000;5.39848000;2022-10-31T06:53:34;54.15;;;25.95;;
7829;SDS011;3960;51.86894000;5.39848000;2022-10-31T06:56:00;51.08;;;25.38;;
7829;SDS011;3960;51.86894000;5.39848000;2022-10-31T06:58:25;47.72;;;24.85;;
7829;SDS011;3960;51.86894000;5.39848000;2022-10-31T07:00:50;48.15;;;23.65;;
7829;SDS011;3960;51.86894000;5.39848000;2022-10-31T07:03:15;44.00;;;23.00;;
7829;SDS011;3960;51.86894000;5.39848000;2022-10-31T07:05:41;55.60;;;23.23;;
7829;SDS011;3960;51.86894000;5.39848000;2022-10-31T07:08:07;52.60;;;23.58;;
7829;SDS011;3960;51.86894000;5.39848000;2022-10-31T07:10:33;49.88;;;23.08;;
7829;SDS011;3960;51.86894000;5.39848000;2022-10-31T07:13:00;49.00;;;24.23;;
7829;SDS011;3960;51.86894000;5.39848000;2022-10-31T07:15:25;49.08;;;24.98;;
7829;SDS011;3960;51.86894000;5.39848000;2022-10-31T07:17:51;46.60;;;24.58;;
7829;SDS011;3960;51.86894000;5.39848000;2022-10-31T07:20:16;44.03;;;24.03;;
7829;SDS011;3960;51.86894000;5.39848000;2022-10-31T07:22:41;43.45;;;22.20;;
7829;SDS011;3960;51.86894000;5.39848000;2022-10-31T07:25:07;39.73;;;21.47;;
7829;SDS011;3960;51.86894000;5.39848000;2022-10-31T07:27:36;42.95;;;23.42;;
7829;SDS011;3960;51.86894000;5.39848000;2022-10-31T07:30:01;46.08;;;23.20;;
7829;SDS011;3960;51.86894000;5.39848000;2022-10-31T07:32:27;47.25;;;24.02;;
7829;SDS011;3960;51.86894000;5.39848000;2022-10-31T07:34:52;48.17;;;24.57;;
7829;SDS011;3960;51.86894000;5.39848000;2022-10-31T07:37:17;50.63;;;24.60;;
7829;SDS011;3960;51.86894000;5.39848000;2022-10-31T07:39:42;44.00;;;24.77;;
7829;SDS011;3960;51.86894000;5.39848000;2022-10-31T07:42:07;49.03;;;24.73;;
7829;SDS011;3960;51.86894000;5.39848000;2022-10-31T07:44:32;52.17;;;23.97;;
7829;SDS011;3960;51.86894000;5.39848000;2022-10-31T07:46:58;51.97;;;25.90;;
7829;SDS011;3960;51.86894000;5.39848000;2022-10-31T07:49:23;51.90;;;26.80;;
7829;SDS011;3960;51.86894000;5.39848000;2022-10-31T07:51:50;47.75;;;26.33;;
7829;SDS011;3960;51.86894000;5.39848000;2022-10-31T07:54:15;49.10;;;26.70;;
7829;SDS011;3960;51.86894000;5.39848000;2022-10-31T07:56:40;55.00;;;27.47;;
7829;SDS011;3960;51.86894000;5.39848000;2022-10-31T07:59:05;59.70;;;28.85;;
7829;SDS011;3960;51.86894000;5.39848000;2022-10-31T08:01:31;49.00;;;27.83;;
7829;SDS011;3960;51.86894000;5.39848000;2022-10-31T08:03:56;56.93;;;27.97;;
7829;SDS011;3960;51.86894000;5.39848000;2022-10-31T08:06:21;53.80;;;28.63;;
7829;SDS011;3960;51.86894000;5.39848000;2022-10-31T08:08:46;56.33;;;28.47;;
7829;SDS011;3960;51.86894000;5.39848000;2022-10-31T08:11:11;48.20;;;27.27;;
7829;SDS011;3960;51.86894000;5.39848000;2022-10-31T08:13:36;57.97;;;27.93;;
7829;SDS011;3960;51.86894000;5.39848000;2022-10-31T08:16:01;54.17;;;27.97;;
7829;SDS011;3960;51.86894000;5.39848000;2022-10-31T08:18:29;54.38;;;28.10;;
7829;SDS011;3960;51.86894000;5.39848000;2022-10-31T08:20:54;54.67;;;28.45;;
7829;SDS011;3960;51.86894000;5.39848000;2022-10-31T08:23:19;44.88;;;27.30;;
7829;SDS011;3960;51.86894000;5.39848000;2022-10-31T08:25:45;48.13;;;25.47;;
7829;SDS011;3960;51.86894000;5.39848000;2022-10-31T08:28:12;45.40;;;25.88;;
7829;SDS011;3960;51.86894000;5.39848000;2022-10-31T08:30:37;47.85;;;24.15;;
7829;SDS011;3960;51.86894000;5.39848000;2022-10-31T08:33:04;40.25;;;24.02;;
7829;SDS011;3960;51.86894000;5.39848000;2022-10-31T08:35:30;40.88;;;23.58;;
7829;SDS011;3960;51.86894000;5.39848000;2022-10-31T08:37:56;43.88;;;25.45;;
7829;SDS011;3960;51.86894000;5.39848000;2022-10-31T08:40:21;37.58;;;21.67;;
7829;SDS011;3960;51.86894000;5.39848000;2022-10-31T08:42:46;38.35;;;23.02;;
7829;SDS011;3960;51.86894000;5.39848000;2022-10-31T08:45:12;41.93;;;23.33;;
7829;SDS011;3960;51.86894000;5.39848000;2022-10-31T08:47:37;38.80;;;24.40;;
7829;SDS011;3960;51.86894000;5.39848000;2022-10-31T08:50:02;44.43;;;25.67;;
7829;SDS011;3960;51.86894000;5.39848000;2022-10-31T08:52:27;43.63;;;23.52;;
7829;SDS011;3960;51.86894000;5.39848000;2022-10-31T08:54:52;42.22;;;23.85;;
7829;SDS011;3960;51.86894000;5.39848000;2022-10-31T08:57:18;40.57;;;21.97;;
7829;SDS011;3960;51.86894000;5.39848000;2022-10-31T08:59:43;35.77;;;21.43;;
7829;SDS011;3960;51.86894000;5.39848000;2022-10-31T09:02:08;40.13;;;22.43;;
7829;SDS011;3960;51.86894000;5.39848000;2022-10-31T09:04:33;36.87;;;23.67;;
7829;SDS011;3960;51.86894000;5.39848000;2022-10-31T09:06:58;41.17;;;25.80;;
7829;SDS011;3960;51.86894000;5.39848000;2022-10-31T09:09:23;46.53;;;26.07;;
7829;SDS011;3960;51.86894000;5.39848000;2022-10-31T09:11:49;43.27;;;25.80;;
7829;SDS011;3960;51.86894000;5.39848000;2022-10-31T09:14:14;41.47;;;24.50;;
7829;SDS011;3960;51.86894000;5.39848000;2022-10-31T09:16:39;43.40;;;28.57;;
7829;SDS011;3960;51.86894000;5.39848000;2022-10-31T09:19:04;46.47;;;25.17;;
7829;SDS011;3960;51.86894000;5.39848000;2022-10-31T09:21:29;35.40;;;22.73;;
7829;SDS011;3960;51.86894000;5.39848000;2022-10-31T09:23:54;31.37;;;20.43;;
7829;SDS011;3960;51.86894000;5.39848000;2022-10-31T09:26:20;31.88;;;19.10;;
7829;SDS011;3960;51.86894000;5.39848000;2022-10-31T09:28:45;34.85;;;19.17;;
7829;SDS011;3960;51.86894000;5.39848000;2022-10-31T09:31:11;30.55;;;18.83;;
7829;SDS011;3960;51.86894000;5.39848000;2022-10-31T09:33:36;30.65;;;18.08;;
7829;SDS011;3960;51.86894000;5.39848000;2022-10-31T09:36:02;24.42;;;16.85;;
7829;SDS011;3960;51.86894000;5.39848000;2022-10-31T09:38:27;30.98;;;15.80;;
7829;SDS011;3960;51.86894000;5.39848000;2022-10-31T09:41:01;32.17;;;20.33;;
7829;SDS011;3960;51.86894000;5.39848000;2022-10-31T09:51:23;27.52;;;18.15;;
7829;SDS011;3960;51.86894000;5.39848000;2022-10-31T09:53:51;34.75;;;19.80;;
7829;SDS011;3960;51.86894000;5.39848000;2022-10-31T09:56:21;29.58;;;22.02;;
7829;SDS011;3960;51.86894000;5.39848000;2022-10-31T09:58:47;36.80;;;26.73;;
7829;SDS011;3960;51.86894000;5.39848000;2022-10-31T10:01:56;32.60;;;21.88;;
7829;SDS011;3960;51.86894000;5.39848000;2022-10-31T10:04:04;27.30;;;20.30;;
7829;SDS011;3960;51.86894000;5.39848000;2022-10-31T10:06:32;31.80;;;16.58;;
7829;SDS011;3960;51.86894000;5.39848000;2022-10-31T10:08:58;23.98;;;15.70;;
7829;SDS011;3960;51.86894000;5.39848000;2022-10-31T10:14:07;24.33;;;16.58;;
7829;SDS011;3960;51.86894000;5.39848000;2022-10-31T10:16:39;27.65;;;17.38;;
7829;SDS011;3960;51.86894000;5.39848000;2022-10-31T10:26:43;31.20;;;20.00;;
7829;SDS011;3960;51.86894000;5.39848000;2022-10-31T10:29:15;33.53;;;19.58;;
7829;SDS011;3960;51.86894000;5.39848000;2022-10-31T10:31:42;29.85;;;17.55;;
7829;SDS011;3960;51.86894000;5.39848000;2022-10-31T10:34:18;23.83;;;15.70;;
7829;SDS011;3960;51.86894000;5.39848000;2022-10-31T10:36:46;28.55;;;16.33;;
7829;SDS011;3960;51.86894000;5.39848000;2022-10-31T10:41:44;26.27;;;17.75;;
7829;SDS011;3960;51.86894000;5.39848000;2022-10-31T10:44:10;32.83;;;18.20;;
7829;SDS011;3960;51.86894000;5.39848000;2022-10-31T10:46:42;32.37;;;18.50;;
7829;SDS011;3960;51.86894000;5.39848000;2022-10-31T10:51:58;38.47;;;20.42;;
7829;SDS011;3960;51.86894000;5.39848000;2022-10-31T10:57:11;34.92;;;20.50;;
7829;SDS011;3960;51.86894000;5.39848000;2022-10-31T10:59:43;30.00;;;19.30;;
7829;SDS011;3960;51.86894000;5.39848000;2022-10-31T11:02:18;37.58;;;20.13;;
7829;SDS011;3960;51.86894000;5.39848000;2022-10-31T11:04:43;33.92;;;19.75;;
7829;SDS011;3960;51.86894000;5.39848000;2022-10-31T11:07:10;40.88;;;22.77;;
7829;SDS011;3960;51.86894000;5.39848000;2022-10-31T11:09:36;38.75;;;23.75;;
7829;SDS011;3960;51.86894000;5.39848000;2022-10-31T11:17:07;43.80;;;22.17;;
7829;SDS011;3960;51.86894000;5.39848000;2022-10-31T11:19:34;42.20;;;24.55;;
7829;SDS011;3960;51.86894000;5.39848000;2022-10-31T11:22:13;42.25;;;24.27;;
7829;SDS011;3960;51.86894000;5.39848000;2022-10-31T11:24:40;53.42;;;26.55;;
7829;SDS011;3960;51.86894000;5.39848000;2022-10-31T11:27:11;51.30;;;26.05;;
7829;SDS011;3960;51.86894000;5.39848000;2022-10-31T11:29:37;52.25;;;24.60;;
7829;SDS011;3960;51.86894000;5.39848000;2022-10-31T11:32:03;45.83;;;25.73;;
7829;SDS011;3960;51.86894000;5.39848000;2022-10-31T11:34:43;47.63;;;26.10;;
7829;SDS011;3960;51.86894000;5.39848000;2022-10-31T11:37:21;58.47;;;27.70;;
7829;SDS011;3960;51.86894000;5.39848000;2022-10-31T11:39:54;49.05;;;27.17;;
7829;SDS011;3960;51.86894000;5.39848000;2022-10-31T11:42:20;40.78;;;22.45;;
7829;SDS011;3960;51.86894000;5.39848000;2022-10-31T11:44:46;42.75;;;22.77;;
7829;SDS011;3960;51.86894000;5.39848000;2022-10-31T11:47:15;45.88;;;24.33;;
7829;SDS011;3960;51.86894000;5.39848000;2022-10-31T11:49:41;38.25;;;20.00;;
7829;SDS011;3960;51.86894000;5.39848000;2022-10-31T11:52:12;40.97;;;21.90;;
7829;SDS011;3960;51.86894000;5.39848000;2022-10-31T11:54:42;39.85;;;24.33;;
7829;SDS011;3960;51.86894000;5.39848000;2022-10-31T11:59:51;49.55;;;22.38;;
7829;SDS011;3960;51.86894000;5.39848000;2022-10-31T12:02:17;47.17;;;22.85;;
7829;SDS011;3960;51.86894000;5.39848000;2022-10-31T12:04:44;40.38;;;20.80;;
7829;SDS011;3960;51.86894000;5.39848000;2022-10-31T12:07:11;39.97;;;21.77;;
7829;SDS011;3960;51.86894000;5.39848000;2022-10-31T12:09:36;40.17;;;21.67;;
7829;SDS011;3960;51.86894000;5.39848000;2022-10-31T12:17:15;44.08;;;22.75;;
7829;SDS011;3960;51.86894000;5.39848000;2022-10-31T12:22:13;46.20;;;24.07;;
7829;SDS011;3960;51.86894000;5.39848000;2022-10-31T12:30:20;48.58;;;24.15;;
7829;SDS011;3960;51.86894000;5.39848000;2022-10-31T12:37:38;36.67;;;22.80;;
7829;SDS011;3960;51.86894000;5.39848000;2022-10-31T12:42:49;44.60;;;23.27;;
7829;SDS011;3960;51.86894000;5.39848000;2022-10-31T12:45:31;40.30;;;22.25;;
7829;SDS011;3960;51.86894000;5.39848000;2022-10-31T12:48:07;44.92;;;23.08;;
7829;SDS011;3960;51.86894000;5.39848000;2022-10-31T12:50:50;46.20;;;24.98;;
7829;SDS011;3960;51.86894000;5.39848000;2022-10-31T12:53:23;42.85;;;25.48;;
7829;SDS011;3960;51.86894000;5.39848000;2022-10-31T12:56:03;47.67;;;23.15;;
7829;SDS011;3960;51.86894000;5.39848000;2022-10-31T12:58:33;41.10;;;22.75;;
7829;SDS011;3960;51.86894000;5.39848000;2022-10-31T13:01:12;49.55;;;21.75;;
7829;SDS011;3960;51.86894000;5.39848000;2022-10-31T13:03:53;39.72;;;22.52;;
7829;SDS011;3960;51.86894000;5.39848000;2022-10-31T13:06:22;42.67;;;23.50;;
7829;SDS011;3960;51.86894000;5.39848000;2022-10-31T13:08:50;41.38;;;22.45;;
7829;SDS011;3960;51.86894000;5.39848000;2022-10-31T13:11:51;32.63;;;21.45;;
7829;SDS011;3960;51.86894000;5.39848000;2022-10-31T13:16:38;35.40;;;19.67;;
7829;SDS011;3960;51.86894000;5.39848000;2022-10-31T13:21:30;36.30;;;18.80;;
7829;SDS011;3960;51.86894000;5.39848000;2022-10-31T13:23:59;33.08;;;18.63;;
7829;SDS011;3960;51.86894000;5.39848000;2022-10-31T13:29:11;40.10;;;18.65;;
7829;SDS011;3960;51.86894000;5.39848000;2022-10-31T13:31:40;38.05;;;17.85;;
7829;SDS011;3960;51.86894000;5.39848000;2022-10-31T13:34:09;32.65;;;18.35;;
7829;SDS011;3960;51.86894000;5.39848000;2022-10-31T13:41:40;35.45;;;17.50;;
7829;SDS011;3960;51.86894000;5.39848000;2022-10-31T13:46:42;41.85;;;21.17;;
7829;SDS011;3960;51.86894000;5.39848000;2022-10-31T13:51:51;32.70;;;18.27;;
7829;SDS011;3960;51.86894000;5.39848000;2022-10-31T13:54:23;34.05;;;18.95;;
7829;SDS011;3960;51.86894000;5.39848000;2022-10-31T13:56:55;35.38;;;19.58;;
7829;SDS011;3960;51.86894000;5.39848000;2022-10-31T13:59:24;27.60;;;17.07;;
7829;SDS011;3960;51.86894000;5.39848000;2022-10-31T14:01:57;35.38;;;18.23;;
7829;SDS011;3960;51.86894000;5.39848000;2022-10-31T14:04:25;31.38;;;17.77;;
7829;SDS011;3960;51.86894000;5.39848000;2022-10-31T14:06:58;31.67;;;16.80;;
7829;SDS011;3960;51.86894000;5.39848000;2022-10-31T14:09:31;34.58;;;16.33;;
7829;SDS011;3960;51.86894000;5.39848000;2022-10-31T14:11:57;34.70;;;16.98;;
7829;SDS011;3960;51.86894000;5.39848000;2022-10-31T14:14:26;33.30;;;15.52;;
7829;SDS011;3960;51.86894000;5.39848000;2022-10-31T14:16:55;29.65;;;14.30;;
7829;SDS011;3960;51.86894000;5.39848000;2022-10-31T14:19:21;23.00;;;13.95;;
7829;SDS011;3960;51.86894000;5.39848000;2022-10-31T14:21:47;29.23;;;13.65;;
7829;SDS011;3960;51.86894000;5.39848000;2022-10-31T14:24:14;25.90;;;13.85;;
7829;SDS011;3960;51.86894000;5.39848000;2022-10-31T14:26:50;25.60;;;14.27;;
7829;SDS011;3960;51.86894000;5.39848000;2022-10-31T14:34:18;25.85;;;13.45;;
7829;SDS011;3960;51.86894000;5.39848000;2022-10-31T14:39:25;28.05;;;13.65;;
7829;SDS011;3960;51.86894000;5.39848000;2022-10-31T14:46:49;24.15;;;13.55;;
7829;SDS011;3960;51.86894000;5.39848000;2022-10-31T14:51:59;27.35;;;12.77;;